Time;durP1;ratioP1;P1;durP2;ratioP2;P2;SDS_P1;SDS_P2;PMS_P1;PMS_P2;Temp;Humidity;BMP_temperature;BMP_pressure;BME280_temperature;BME280_humidity;BME280_pressure;Samples;Min_cycle;Max_cycle;Signal;HPM_P1;HPM_P2
2023/02/08 00:00:23;;;;;;;;;;;;;;;18.23;55.74;103527.42;2304717;76;50436;-73
2023/02/08 00:03:26;;;;;;;;;;;;;;;18.28;55.63;103525.27;2302598;77;51325;-73
2023/02/08 00:06:28;;;;;;;;;;;;;;;18.33;55.53;103524.94;2304350;76;52506;-74
2023/02/08 00:09:29;;;;;;;;;;;;;;;18.36;55.45;103526.05;2289040;76;51714;-73
2023/02/08 00:12:31;;;;;;;;;;;;;;;18.40;55.43;103517.67;2258060;78;54175;-73
2023/02/08 00:15:32;;;;;;;;;;;;;;;18.43;55.48;103517.45;2267539;78;51409;-74
2023/02/08 00:18:34;;;;;;;;;;;;;;;18.40;55.50;103518.16;2244066;78;53922;-74
2023/02/08 00:21:36;;;;;;;;;;;;;;;18.35;55.64;103521.17;2267472;78;50047;-74
2023/02/08 00:24:38;;;;;;;;;;;;;;;18.32;55.69;103522.75;2267303;78;50344;-73
2023/02/08 00:27:39;;;;;;;;;;;;;;;18.29;55.75;103522.98;2267434;78;50674;-73
2023/02/08 00:30:41;;;;;;;;;;;;;;;18.26;55.80;103524.05;2244045;78;52367;-72
2023/02/08 00:33:42;;;;;;;;;;;;;;;18.21;55.86;103518.63;2243943;78;51567;-73
2023/02/08 00:36:44;;;;;;;;;;;;;;;18.17;55.91;103526.04;2243736;78;51597;-73
2023/02/08 00:39:45;;;;;;;;;;;;;;;18.11;56.10;103523.81;2278394;77;50398;-73
2023/02/08 00:42:47;;;;;;;;;;;;;;;18.10;56.22;103520.74;2251958;77;51173;-72
2023/02/08 00:46:04;;;;;;;;;;;;;;;18.10;56.25;103520.74;2267410;78;50592;-71
2023/02/08 00:49:06;;;;;;;;;;;;;;;18.16;56.21;103522.12;2267105;78;51522;-71
2023/02/08 00:52:07;;;;;;;;;;;;;;;18.19;56.14;103519.24;2267160;78;51937;-72
2023/02/08 00:55:09;;;;;;;;;;;;;;;18.24;56.03;103522.45;2242036;78;51261;-70
2023/02/08 00:58:11;;;;;;;;;;;;;;;18.29;55.98;103525.66;2267226;78;50512;-72
2023/02/08 01:01:13;;;;;;;;;;;;;;;18.33;55.93;103531.64;2267521;78;51541;-72
2023/02/08 01:04:14;;;;;;;;;;;;;;;18.34;55.91;103526.17;2267293;78;50235;-71
2023/02/08 01:07:16;;;;;;;;;;;;;;;18.35;55.85;103518.98;2267346;77;51090;-71
2023/02/08 01:10:17;;;;;;;;;;;;;;;18.34;55.84;103523.50;2267451;78;50199;-71
2023/02/08 01:13:19;;;;;;;;;;;;;;;18.32;55.84;103524.08;2267352;78;50722;-72
2023/02/08 01:16:21;;;;;;;;;;;;;;;18.29;55.90;103529.67;2267569;78;51534;-72
2023/02/08 01:19:23;;;;;;;;;;;;;;;18.23;55.87;103524.25;2244300;78;49524;-71
2023/02/08 01:22:24;;;;;;;;;;;;;;;18.19;55.95;103525.94;2267308;78;50666;-72
2023/02/08 01:25:26;;;;;;;;;;;;;;;18.15;55.98;103525.29;2267501;78;50724;-72
2023/02/08 01:28:28;;;;;;;;;;;;;;;18.10;56.13;103527.44;2267412;78;50317;-71
2023/02/08 01:31:30;;;;;;;;;;;;;;;18.03;56.33;103531.06;2242429;78;51710;-72
2023/02/08 01:34:32;;;;;;;;;;;;;;;18.03;56.38;103528.37;2267329;78;51563;-72
2023/02/08 01:37:34;;;;;;;;;;;;;;;18.08;56.44;103530.70;2267695;78;50572;-72
2023/02/08 01:40:35;;;;;;;;;;;;;;;18.13;56.33;103520.52;2268481;77;50338;-73
2023/02/08 01:43:55;;;;;;;;;;;;;;;18.19;56.19;103523.27;2304445;76;51194;-72
2023/02/08 01:46:57;;;;;;;;;;;;;;;18.25;56.16;103526.83;2305472;77;50794;-71
2023/02/08 01:49:58;;;;;;;;;;;;;;;18.30;56.00;103518.47;2291888;77;50628;-72
2023/02/08 01:53:00;;;;;;;;;;;;;;;18.35;55.89;103528.37;2243875;78;50968;-72
2023/02/08 01:56:03;;;;;;;;;;;;;;;18.34;55.80;103526.17;2244046;78;50132;-72
2023/02/08 01:59:07;;;;;;;;;;;;;;;18.31;55.82;103525.52;2267580;78;51504;-71
2023/02/08 02:02:11;;;;;;;;;;;;;;;18.28;55.83;103530.13;2267553;78;51777;-71
2023/02/08 02:05:13;;;;;;;;;;;;;;;18.25;55.84;103530.84;2267379;78;50377;-71
2023/02/08 02:08:14;;;;;;;;;;;;;;;18.19;55.94;103525.94;2248801;77;50093;-72
2023/02/08 02:11:16;;;;;;;;;;;;;;;18.15;56.03;103521.76;2292918;77;51460;-74
2023/02/08 02:14:17;;;;;;;;;;;;;;;18.10;56.15;103511.85;2303907;77;50756;-73
2023/02/08 02:17:19;;;;;;;;;;;;;;;18.03;56.25;103513.64;2303159;77;51420;-72
2023/02/08 02:20:29;;;;;;;;;;;;;;;18.00;56.41;103511.65;2304931;76;51733;-73
2023/02/08 02:23:48;;;;;;;;;;;;;;;18.01;56.47;103512.04;2306161;76;51535;-75
2023/02/08 02:26:52;;;;;;;;;;;;;;;18.04;56.43;103517.17;2303709;77;51259;-72
2023/02/08 02:29:55;;;;;;;;;;;;;;;18.09;56.28;103517.70;2303250;76;50765;-72
2023/02/08 02:32:58;;;;;;;;;;;;;;;18.13;56.18;103521.00;2303332;76;51340;-72
2023/02/08 02:36:01;;;;;;;;;;;;;;;18.16;56.11;103522.12;2282230;77;50204;-72
2023/02/08 02:39:04;;;;;;;;;;;;;;;18.19;56.04;103522.77;2289460;77;51631;-71
2023/02/08 02:45:34;;;;;;;;;;;;;;;18.28;55.86;103527.45;2267889;78;22357;-72
2023/02/08 02:48:38;;;;;;;;;;;;;;;18.30;55.76;103518.47;2243979;78;51232;-73
2023/02/08 02:51:47;;;;;;;;;;;;;;;18.30;55.69;103526.02;2267509;78;50424;-72
2023/02/08 02:54:52;;;;;;;;;;;;;;;18.26;55.78;103531.21;2267230;78;51515;-75
2023/02/08 02:57:54;;;;;;;;;;;;;;;18.22;55.75;103530.59;2267545;78;50307;-71
2023/02/08 03:00:56;;;;;;;;;;;;;;;18.18;55.79;103524.21;2244049;78;50121;-71
2023/02/08 03:03:58;;;;;;;;;;;;;;;18.14;55.82;103527.61;2267249;78;50369;-71
2023/02/08 03:07:19;;;;;;;;;;;;;;;18.11;55.87;103533.65;2267486;78;50385;-71
2023/02/08 03:10:36;;;;;;;;;;;;;;;18.06;55.97;103530.83;2267431;78;50449;-72
2023/02/08 03:13:55;;;;;;;;;;;;;;;18.00;56.18;103540.63;2223265;78;49541;-73
2023/02/08 03:17:10;;;;;;;;;;;;;;;17.96;56.34;103529.77;2267398;78;51559;-71
2023/02/08 03:20:13;;;;;;;;;;;;;;;18.00;56.36;103536.61;2267534;77;51440;-70
2023/02/08 03:23:17;;;;;;;;;;;;;;;18.06;56.25;103525.47;2267250;78;51581;-71
2023/02/08 03:26:20;;;;;;;;;;;;;;;18.10;56.21;103527.44;2243602;78;50979;-72
2023/02/08 03:29:26;;;;;;;;;;;;;;;18.16;56.02;103522.12;2244368;78;51573;-71
2023/02/08 03:32:29;;;;;;;;;;;;;;;18.22;55.93;103521.70;2267228;77;50316;-72
2023/02/08 03:35:33;;;;;;;;;;;;;;;18.27;55.75;103522.22;2267453;77;50167;-72
2023/02/08 03:38:36;;;;;;;;;;;;;;;18.26;55.73;103531.21;2244184;78;49669;-71
2023/02/08 03:41:38;;;;;;;;;;;;;;;18.23;55.70;103530.09;2267387;77;51531;-74
2023/02/08 03:44:41;;;;;;;;;;;;;;;18.19;55.69;103525.45;2267198;78;50652;-73
2023/02/08 03:47:43;;;;;;;;;;;;;;;18.14;55.77;103524.08;2267504;78;51515;-72
2023/02/08 03:50:46;;;;;;;;;;;;;;;18.11;55.85;103524.27;2244107;78;51071;-72
2023/02/08 03:53:47;;;;;;;;;;;;;;;18.09;55.89;103526.23;2267225;78;50278;-72
2023/02/08 03:56:54;;;;;;;;;;;;;;;18.04;55.88;103530.08;2267324;78;51425;-71
2023/02/08 04:00:00;;;;;;;;;;;;;;;17.95;56.06;103528.53;2267466;78;50480;-73
2023/02/08 04:03:12;;;;;;;;;;;;;;;17.93;56.19;103527.31;2244089;78;50136;-72
2023/02/08 04:06:13;;;;;;;;;;;;;;;17.93;56.32;103522.41;2267468;78;50278;-73
2023/02/08 04:09:15;;;;;;;;;;;;;;;17.97;56.23;103521.25;2244188;78;50771;-71
2023/02/08 04:12:17;;;;;;;;;;;;;;;18.02;56.10;103523.97;2278703;77;50348;-72
2023/02/08 04:15:18;;;;;;;;;;;;;;;18.05;55.98;103518.38;2256488;77;51673;-73
2023/02/08 04:18:20;;;;;;;;;;;;;;;18.11;55.88;103520.25;2305511;77;52258;-71
2023/02/08 04:21:21;;;;;;;;;;;;;;;18.13;55.78;103523.19;2305584;77;51618;-71
2023/02/08 04:24:23;;;;;;;;;;;;;;;18.17;55.67;103518.49;2280972;77;51562;-72
2023/02/08 04:27:24;;;;;;;;;;;;;;;18.21;55.57;103522.64;2257170;77;51646;-72
2023/02/08 04:30:26;;;;;;;;;;;;;;;18.24;55.48;103528.66;2256368;77;52262;-71
2023/02/08 04:33:28;;;;;;;;;;;;;;;18.27;55.39;103536.97;2281190;77;50078;-72
2023/02/08 04:36:29;;;;;;;;;;;;;;;18.25;55.40;103532.19;2305388;77;51668;-72
2023/02/08 04:39:31;;;;;;;;;;;;;;;18.19;55.46;103526.80;2296462;77;50306;-72
2023/02/08 04:42:32;;;;;;;;;;;;;;;18.16;55.49;103523.00;2257993;78;50255;-70
2023/02/08 04:45:34;;;;;;;;;;;;;;;18.14;55.51;103526.76;2243941;78;50821;-73
2023/02/08 04:48:36;;;;;;;;;;;;;;;18.10;55.56;103519.40;2267482;78;51521;-71
2023/02/08 04:51:37;;;;;;;;;;;;;;;18.08;55.59;103521.81;2243934;78;49661;-72
2023/02/08 04:54:39;;;;;;;;;;;;;;;18.01;55.66;103516.91;2243765;78;50382;-70
2023/02/08 04:57:40;;;;;;;;;;;;;;;17.96;55.89;103526.25;2267227;78;50251;-72
2023/02/08 05:00:42;;;;;;;;;;;;;;;17.92;56.02;103526.92;2267394;78;50718;-71
2023/02/08 05:03:44;;;;;;;;;;;;;;;17.96;56.08;103529.77;2243776;78;50962;-72
2023/02/08 05:06:45;;;;;;;;;;;;;;;18.01;56.11;103522.75;2244027;78;51069;-71
2023/02/08 05:09:47;;;;;;;;;;;;;;;18.06;55.94;103521.45;2242774;78;51419;-72
2023/02/08 05:12:48;;;;;;;;;;;;;;;18.13;55.77;103530.38;2253907;78;51375;-72
2023/02/08 05:15:50;;;;;;;;;;;;;;;18.17;55.65;103529.21;2244064;78;49538;-72
2023/02/08 05:18:52;;;;;;;;;;;;;;;18.21;55.55;103530.23;2243854;78;51515;-71
2023/02/08 05:21:53;;;;;;;;;;;;;;;18.21;55.48;103532.02;2244031;78;51351;-72
2023/02/08 05:24:56;;;;;;;;;;;;;;;18.20;55.50;103530.33;2267217;78;51395;-75
2023/02/08 05:27:58;;;;;;;;;;;;;;;18.15;55.54;103527.97;2244289;78;51250;-72
2023/02/08 05:31:02;;;;;;;;;;;;;;;18.13;55.55;103525.88;2267331;78;50713;-72
2023/02/08 05:34:03;;;;;;;;;;;;;;;18.09;55.57;103524.40;2266238;78;51500;-74
2023/02/08 05:37:05;;;;;;;;;;;;;;;18.05;55.64;103539.82;2267312;78;51464;-73
2023/02/08 05:40:07;;;;;;;;;;;;;;;18.02;55.70;103541.87;2251092;78;50986;-72
2023/02/08 05:43:10;;;;;;;;;;;;;;;17.98;55.75;103543.92;2243535;78;50404;-72
2023/02/08 05:46:12;;;;;;;;;;;;;;;17.92;56.09;103543.00;2266956;78;50440;-72
2023/02/08 05:49:13;;;;;;;;;;;;;;;17.89;56.20;103548.58;2243485;78;50144;-70
2023/02/08 05:52:15;;;;;;;;;;;;;;;17.92;56.10;103547.02;2243138;78;50948;-71
2023/02/08 05:55:16;;;;;;;;;;;;;;;17.97;55.92;103547.55;2243521;78;51355;-71
2023/02/08 05:58:18;;;;;;;;;;;;;;;18.01;55.73;103543.70;2243494;78;52206;-71
2023/02/08 06:01:20;;;;;;;;;;;;;;;18.03;55.57;103544.45;2266996;78;50622;-70
2023/02/08 06:04:21;;;;;;;;;;;;;;;18.05;55.42;103549.20;2243824;78;51427;-71
2023/02/08 06:07:23;;;;;;;;;;;;;;;18.09;55.29;103551.20;2244035;78;50366;-69
2023/02/08 06:10:25;;;;;;;;;;;;;;;18.12;55.09;103545.61;2255780;77;50325;-70
2023/02/08 06:13:28;;;;;;;;;;;;;;;18.16;54.94;103547.12;2266714;77;50301;-71
2023/02/08 06:16:29;;;;;;;;;;;;;;;18.20;54.79;103554.45;2269402;78;51763;-73
2023/02/08 06:19:31;;;;;;;;;;;;;;;18.19;54.69;103558.11;2266899;78;51477;-73
2023/02/08 06:22:34;;;;;;;;;;;;;;;18.16;54.66;103563.66;2266431;78;51567;-72
2023/02/08 06:25:36;;;;;;;;;;;;;;;18.14;54.72;103558.91;2300845;77;50710;-71
2023/02/08 06:28:37;;;;;;;;;;;;;;;18.08;55.02;103562.01;2280816;77;50920;-73
2023/02/08 06:31:39;;;;;;;;;;;;;;;18.08;55.30;103564.69;2304970;77;51684;-72
2023/02/08 06:34:40;;;;;;;;;;;;;;;18.02;55.36;103572.20;2304704;77;51477;-72
2023/02/08 06:37:42;;;;;;;;;;;;;;;18.00;55.38;103580.81;2304948;77;51490;-73
2023/02/08 06:40:45;;;;;;;;;;;;;;;17.98;55.48;103576.08;2266577;78;51352;-72
2023/02/08 06:43:47;;;;;;;;;;;;;;;17.94;55.59;103577.23;2229014;77;49679;-72
2023/02/08 06:46:50;;;;;;;;;;;;;;;17.96;55.59;103578.00;2258054;77;51946;-74
2023/02/08 06:49:51;;;;;;;;;;;;;;;18.01;55.57;103581.70;2298391;77;50441;-74
2023/02/08 06:52:53;;;;;;;;;;;;;;;18.03;55.54;103579.28;2303469;77;51338;-73
2023/02/08 06:55:55;;;;;;;;;;;;;;;18.10;55.39;103578.84;2303754;76;50679;-75
2023/02/08 06:58:57;;;;;;;;;;;;;;;18.17;55.34;103578.79;2302324;77;50304;-75
2023/02/08 07:01:58;;;;;;;;;;;;;;;18.29;55.06;103588.64;2302115;77;51449;-75
2023/02/08 07:05:00;;;;;;;;;;;;;;;18.35;54.89;103576.13;2272267;76;50920;-74
2023/02/08 07:08:01;;;;;;;;;;;;;;;18.32;54.85;103581.72;2220997;77;50493;-75
2023/02/08 07:11:08;;;;;;;;;;;;;;;18.32;54.78;103581.72;2281050;76;49930;-75
2023/02/08 07:14:12;;;;;;;;;;;;;;;18.27;54.81;103586.55;2266340;77;50296;-76
2023/02/08 07:17:14;;;;;;;;;;;;;;;18.28;54.69;103581.55;2243750;78;50963;-75
2023/02/08 07:20:15;;;;;;;;;;;;;;;18.24;54.67;103588.11;2244105;78;50727;-75
2023/02/08 07:23:17;;;;;;;;;;;;;;;18.18;54.68;103576.47;2267268;78;50383;-76
2023/02/08 07:26:20;;;;;;;;;;;;;;;18.12;54.76;103575.58;2267328;78;50506;-75
2023/02/08 07:29:22;;;;;;;;;;;;;;;18.12;54.69;103571.56;2220127;78;51359;-74
2023/02/08 07:32:23;;;;;;;;;;;;;;;18.17;54.59;103565.39;2243937;78;50767;-74
2023/02/08 07:35:25;;;;;;;;;;;;;;;18.13;54.71;103562.54;2267366;78;51435;-75
2023/02/08 07:38:27;;;;;;;;;;;;;;;18.17;54.61;103564.05;2244054;78;50332;-75
2023/02/08 07:41:28;;;;;;;;;;;;;;;18.19;54.58;103568.33;2244422;78;53264;-75
2023/02/08 07:44:30;;;;;;;;;;;;;;;18.24;54.49;103569.35;2236166;78;50375;-75
2023/02/08 07:47:32;;;;;;;;;;;;;;;18.26;54.43;103579.45;2249488;79;50811;-75
2023/02/08 07:50:33;;;;;;;;;;;;;;;18.33;54.27;103585.25;2249463;79;50605;-75
2023/02/08 07:53:35;;;;;;;;;;;;;;;18.33;54.19;103590.12;2236230;78;52488;-74
2023/02/08 07:56:36;;;;;;;;;;;;;;;18.36;54.08;103588.55;2249433;79;51558;-74
2023/02/08 07:59:39;;;;;;;;;;;;;;;18.38;53.99;103584.44;2236773;78;51486;-75
2023/02/08 08:02:41;;;;;;;;;;;;;;;18.44;53.81;103592.87;2249334;79;50406;-75
2023/02/08 08:05:42;;;;;;;;;;;;;;;18.45;53.75;103598.63;2236427;78;51870;-75
2023/02/08 08:08:46;;;;;;;;;;;;;;;18.52;53.55;103595.00;2251035;77;50284;-75
2023/02/08 08:11:47;;;;;;;;;;;;;;;18.56;53.46;103592.98;2279332;77;51620;-76
2023/02/08 08:14:49;;;;;;;;;;;;;;;18.58;53.38;103600.44;2267193;78;51425;-76
2023/02/08 08:17:51;;;;;;;;;;;;;;;18.61;53.24;103602.40;2219637;78;51865;-75
2023/02/08 08:20:52;;;;;;;;;;;;;;;18.62;53.14;103615.31;2244274;78;51542;-76
2023/02/08 08:23:54;;;;;;;;;;;;;;;18.58;53.23;103611.16;2267278;78;51614;-75
2023/02/08 08:26:55;;;;;;;;;;;;;;;18.55;53.17;103614.04;2267374;78;51490;-75
2023/02/08 08:29:58;;;;;;;;;;;;;;;18.46;53.32;103612.89;2243987;78;50773;-75
2023/02/08 08:33:00;;;;;;;;;;;;;;;18.41;53.43;103623.08;2244199;78;51442;-75
2023/02/08 08:36:01;;;;;;;;;;;;;;;18.36;53.47;103619.87;2267498;78;51366;-75
2023/02/08 08:39:03;;;;;;;;;;;;;;;18.30;53.58;103625.19;2272865;77;51480;-76
2023/02/08 08:42:05;;;;;;;;;;;;;;;18.28;53.64;103623.95;2293347;76;52663;-75
2023/02/08 08:45:06;;;;;;;;;;;;;;;18.31;53.59;103620.19;2256611;77;52329;-73
2023/02/08 08:48:08;;;;;;;;;;;;;;;18.39;53.41;103612.45;2305410;77;51435;-76
2023/02/08 08:51:10;;;;;;;;;;;;;;;18.43;53.31;103605.92;2281348;77;51460;-76
2023/02/08 08:54:11;;;;;;;;;;;;;;;18.45;53.25;103604.48;2280945;77;50106;-75
2023/02/08 08:57:13;;;;;;;;;;;;;;;18.47;53.15;103598.05;2281324;77;51431;-75
2023/02/08 09:00:14;;;;;;;;;;;;;;;18.50;53.06;103596.48;2281292;77;53925;-75
2023/02/08 09:03:16;;;;;;;;;;;;;;;18.54;52.93;103594.91;2281299;77;51486;-74
2023/02/08 09:06:18;;;;;;;;;;;;;;;18.53;52.95;103598.57;2281428;77;51705;-75
2023/02/08 09:09:19;;;;;;;;;;;;;;;18.56;52.89;103595.17;2287287;77;50726;-75
2023/02/08 09:12:21;;;;;;;;;;;;;;;18.56;52.87;103591.15;2257916;78;50031;-74
2023/02/08 09:15:23;;;;;;;;;;;;;;;18.63;52.70;103583.53;2299492;77;50783;-74
2023/02/08 09:18:24;;;;;;;;;;;;;;;18.64;52.64;103580.72;2276347;77;52466;-75
2023/02/08 09:21:26;;;;;;;;;;;;;;;18.68;52.53;103585.39;2276650;77;51469;-74
2023/02/08 09:24:27;;;;;;;;;;;;;;;18.71;52.46;103581.14;2277000;77;51434;-73
2023/02/08 09:27:29;;;;;;;;;;;;;;;18.74;52.32;103580.91;2278796;77;52116;-75
2023/02/08 09:30:30;;;;;;;;;;;;;;;18.74;52.25;103582.25;2251500;77;49608;-75
2023/02/08 09:33:32;;;;;;;;;;;;;;;18.75;52.17;103603.21;2276235;77;51427;-74
2023/02/08 09:36:35;;;;;;;;;;;;;;;18.64;52.37;103591.44;2277279;77;51419;-74
2023/02/08 09:39:36;;;;;;;;;;;;;;;18.59;52.47;103602.14;2289175;77;51605;-74
2023/02/08 09:42:44;;;;;;;;;;;;;;;18.53;52.56;103602.59;2252668;78;51069;-75
2023/02/08 09:45:56;;;;;;;;;;;;;;;18.46;52.64;103596.80;2259597;77;50788;-76
2023/02/08 09:48:59;;;;;;;;;;;;;;;18.42;52.76;103604.22;2265404;77;50601;-75
2023/02/08 09:52:02;;;;;;;;;;;;;;;18.40;52.81;103603.47;2266809;77;51501;-75
2023/02/08 09:55:05;;;;;;;;;;;;;;;18.44;52.72;103594.70;2243806;78;51033;-75
2023/02/08 09:58:11;;;;;;;;;;;;;;;18.47;52.60;103594.02;2264756;77;51475;-75
2023/02/08 10:01:14;;;;;;;;;;;;;;;18.53;52.48;103583.33;2266123;77;50322;-74
2023/02/08 10:04:23;;;;;;;;;;;;;;;18.54;52.45;103583.69;2281618;77;50333;-74
2023/02/08 10:07:25;;;;;;;;;;;;;;;18.58;52.38;103577.64;2242816;78;52589;-75
2023/02/08 10:10:35;;;;;;;;;;;;;;;18.61;52.28;103574.73;2277917;77;50681;-75
2023/02/08 10:13:54;;;;;;;;;;;;;;;18.61;52.28;103575.58;2273227;77;51522;-75
2023/02/08 10:17:00;;;;;;;;;;;;;;;18.66;52.15;103562.69;2266670;77;50400;-75
2023/02/08 10:20:09;;;;;;;;;;;;;;;18.66;52.14;103560.01;2241167;78;52610;-75
2023/02/08 10:23:29;;;;;;;;;;;;;;;18.70;52.11;103555.27;2252929;77;50717;-75
2023/02/08 10:26:38;;;;;;;;;;;;;;;18.74;51.97;103551.89;2259576;77;50717;-75
2023/02/08 10:29:44;;;;;;;;;;;;;;;18.80;51.82;103541.58;2282684;77;51478;-74
2023/02/08 10:32:47;;;;;;;;;;;;;;;18.84;51.75;103548.44;2263441;77;49673;-75
2023/02/08 10:35:49;;;;;;;;;;;;;;;18.91;51.56;103544.83;2286178;77;50341;-75
2023/02/08 10:38:51;;;;;;;;;;;;;;;18.85;51.64;103539.90;2278400;78;50761;-74
2023/02/08 10:41:53;;;;;;;;;;;;;;;18.80;51.72;103541.58;2285110;75;51691;-74
2023/02/08 10:44:56;;;;;;;;;;;;;;;18.75;51.75;103526.77;2254560;78;52405;-74
2023/02/08 10:48:02;;;;;;;;;;;;;;;18.68;51.83;103519.67;2259064;78;51421;-74
2023/02/08 10:51:04;;;;;;;;;;;;;;;18.59;52.01;103519.86;2276470;77;50213;-73
2023/02/08 10:54:05;;;;;;;;;;;;;;;18.54;52.10;103515.80;2283471;77;51490;-73
2023/02/08 10:57:17;;;;;;;;;;;;;;;18.52;52.19;103509.69;2270360;77;51193;-71
2023/02/08 11:00:24;;;;;;;;;;;;;;;18.55;52.13;103513.02;2281219;77;50494;-72
2023/02/08 11:03:26;;;;;;;;;;;;;;;18.59;52.16;103512.30;2291646;77;50677;-71
2023/02/08 11:06:28;;;;;;;;;;;;;;;18.67;52.04;103509.91;2267126;78;51491;-71
2023/02/08 11:09:30;;;;;;;;;;;;;;;18.68;52.17;103505.78;2279411;77;49235;-71
2023/02/08 11:12:32;;;;;;;;;;;;;;;18.74;52.10;103499.09;2294590;76;51447;-71
2023/02/08 11:15:35;;;;;;;;;;;;;;;18.79;51.87;103495.61;2290248;77;51527;-71
2023/02/08 11:18:40;;;;;;;;;;;;;;;18.76;52.11;103490.98;2290766;77;52358;-72
2023/02/08 11:21:44;;;;;;;;;;;;;;;18.78;51.69;103495.25;2246255;78;51062;-73
2023/02/08 11:24:49;;;;;;;;;;;;;;;19.02;51.41;103494.37;2280109;76;22291;-72
2023/02/08 11:27:48;;;;;;;;;;;;;;;19.08;51.46;103491.20;2291035;77;22378;-73
2023/02/08 11:30:58;;;;;;;;;;;;;;;18.96;49.30;103482.74;2279388;76;51524;-71
2023/02/08 11:34:04;;;;;;;;;;;;;;;18.59;46.48;103491.70;2241797;78;52770;-72
2023/02/08 11:37:24;;;;;;;;;;;;;;;18.62;47.57;103484.76;2264255;77;51555;-73
2023/02/08 11:40:27;;;;;;;;;;;;;;;18.65;47.88;103482.33;2272635;76;22416;-73
2023/02/08 11:43:29;;;;;;;;;;;;;;;18.59;48.51;103478.78;2267891;78;50496;-76
2023/02/08 11:46:32;;;;;;;;;;;;;;;18.58;48.79;103483.30;2245091;78;51103;-75
2023/02/08 11:49:38;;;;;;;;;;;;;;;18.56;49.17;103480.36;2268560;78;50746;-76
2023/02/08 11:52:41;;;;;;;;;;;;;;;18.53;49.55;103473.88;2268060;78;50899;-75
2023/02/08 11:55:42;;;;;;;;;;;;;;;18.54;50.07;103480.45;2267395;78;50265;-75
2023/02/08 11:58:48;;;;;;;;;;;;;;;18.60;50.18;103476.00;2267333;78;50717;-75
2023/02/08 12:01:50;;;;;;;;;;;;;;;18.64;50.30;103474.78;2263624;77;50414;-75
2023/02/08 12:04:52;;;;;;;;;;;;;;;18.71;50.17;103475.19;2299125;76;50425;-74
2023/02/08 12:08:01;;;;;;;;;;;;;;;18.77;50.12;103477.92;2278583;77;50388;-73
2023/02/08 12:11:04;;;;;;;;;;;;;;;18.79;50.08;103473.30;2277672;77;51326;-73
2023/02/08 12:14:10;;;;;;;;;;;;;;;18.83;50.10;103467.59;2266509;78;51536;-73
2023/02/08 12:17:19;;;;;;;;;;;;;;;18.87;50.07;103474.92;2294100;77;50344;-73
2023/02/08 12:20:25;;;;;;;;;;;;;;;18.92;50.01;103462.01;2304922;77;50690;-74
2023/02/08 12:23:32;;;;;;;;;;;;;;;18.96;50.02;103463.95;2305689;77;52388;-73
2023/02/08 12:26:36;;;;;;;;;;;;;;;18.97;50.05;103468.38;2276895;77;50697;-73
2023/02/08 12:29:49;;;;;;;;;;;;;;;19.01;50.01;103485.93;2267358;78;52266;-73
2023/02/08 12:32:55;;;;;;;;;;;;;;;19.03;49.96;103487.53;2267145;78;50775;-73
2023/02/08 12:36:07;;;;;;;;;;;;;;;19.09;49.89;103483.55;2266136;78;50364;-72
2023/02/08 12:42:51;;;;;;;;;;;;;;;19.17;49.69;103476.25;2276863;77;22321;-73
2023/02/08 12:46:13;;;;;;;;;;;;;;;19.13;49.72;103475.61;2266974;77;50434;-73
2023/02/08 12:49:19;;;;;;;;;;;;;;;19.06;49.86;103485.09;2243921;78;52403;-73
2023/02/08 12:52:25;;;;;;;;;;;;;;;19.00;50.02;103474.84;2266960;78;50452;-73
2023/02/08 12:55:28;;;;;;;;;;;;;;;18.90;50.14;103466.63;2267316;78;51596;-73
2023/02/08 12:58:30;;;;;;;;;;;;;;;18.84;50.25;103463.93;2267447;78;51560;-73
2023/02/08 13:01:34;;;;;;;;;;;;;;;18.80;50.37;103462.93;2243862;78;51413;-73
2023/02/08 13:04:38;;;;;;;;;;;;;;;18.78;50.49;103464.87;2243916;78;51085;-73
2023/02/08 13:07:40;;;;;;;;;;;;;;;18.80;50.47;103457.08;2267382;78;51498;-74
2023/02/08 13:10:43;;;;;;;;;;;;;;;18.83;50.43;103451.96;2282634;77;51486;-74
2023/02/08 13:13:46;;;;;;;;;;;;;;;18.86;50.39;103443.22;2280026;77;51428;-74
2023/02/08 13:16:50;;;;;;;;;;;;;;;18.89;50.29;103438.95;2304607;77;50787;-74
2023/02/08 13:20:08;;;;;;;;;;;;;;;18.93;50.21;103443.58;2304440;77;51872;-74
2023/02/08 13:23:16;;;;;;;;;;;;;;;18.96;50.18;103446.52;2268172;77;50104;-75
2023/02/08 13:26:23;;;;;;;;;;;;;;;19.00;50.10;103441.30;2303180;77;22295;-74
2023/02/08 13:29:24;;;;;;;;;;;;;;;19.06;49.94;103437.67;2304861;76;22079;-74
2023/02/08 13:32:31;;;;;;;;;;;;;;;19.12;49.85;103429.63;2306007;76;50643;-74
2023/02/08 13:35:30;;;;;;;;;;;;;;;19.14;49.87;103420.98;2304270;77;21776;-75
2023/02/08 13:38:33;;;;;;;;;;;;;;;19.17;49.74;103422.07;2306422;77;50627;-74
2023/02/08 13:41:35;;;;;;;;;;;;;;;19.11;49.84;103421.19;2282081;77;51350;-74
2023/02/08 13:44:39;;;;;;;;;;;;;;;19.03;50.00;103416.41;2269345;78;51723;-74
2023/02/08 13:47:48;;;;;;;;;;;;;;;19.00;50.09;103423.86;2269187;78;51496;-74
2023/02/08 13:50:55;;;;;;;;;;;;;;;18.90;50.23;103419.19;2245624;78;49618;-74
2023/02/08 13:53:59;;;;;;;;;;;;;;;18.84;50.37;103416.13;2245523;78;51669;-74
2023/02/08 13:57:00;;;;;;;;;;;;;;;18.78;50.47;103411.22;2268885;78;51480;-74
2023/02/08 14:00:16;;;;;;;;;;;;;;;18.78;50.53;103412.09;2268755;78;50724;-74
2023/02/08 14:03:28;;;;;;;;;;;;;;;18.77;50.62;103414.39;2215159;78;50177;-74
2023/02/08 14:06:29;;;;;;;;;;;;;;;18.82;50.58;103405.51;2245487;78;50690;-74
2023/02/08 14:09:50;;;;;;;;;;;;;;;18.87;50.46;103411.87;2279980;77;51683;-74
2023/02/08 14:13:08;;;;;;;;;;;;;;;18.97;50.23;103405.31;2276723;77;51513;-74
2023/02/08 14:16:20;;;;;;;;;;;;;;;18.97;50.23;103408.00;2268542;78;50610;-74
2023/02/08 14:19:25;;;;;;;;;;;;;;;19.01;50.09;103403.63;2240259;78;50776;-74
2023/02/08 14:22:27;;;;;;;;;;;;;;;19.04;50.08;103402.53;2269941;78;22258;-74
2023/02/08 14:25:43;;;;;;;;;;;;;;;19.09;49.98;103393.64;2268406;76;50869;-75
2023/02/08 14:28:45;;;;;;;;;;;;;;;19.12;49.91;103394.73;2244177;78;50497;-75
2023/02/08 14:31:47;;;;;;;;;;;;;;;19.10;49.88;103385.45;2269688;78;50478;-75
2023/02/08 14:34:50;;;;;;;;;;;;;;;19.05;50.02;103382.77;2269471;78;50774;-74
2023/02/08 14:38:09;;;;;;;;;;;;;;;18.98;50.16;103390.91;2269162;78;51410;-74
2023/02/08 14:41:11;;;;;;;;;;;;;;;18.89;50.29;103383.95;2253318;78;51845;-74
2023/02/08 14:44:32;;;;;;;;;;;;;;;18.80;50.47;103376.59;2245859;78;51475;-74
2023/02/08 14:47:38;;;;;;;;;;;;;;;18.77;50.54;103374.65;2269136;78;50666;-74
2023/02/08 14:50:39;;;;;;;;;;;;;;;18.69;50.68;103371.19;2269322;78;22132;-74
2023/02/08 14:53:43;;;;;;;;;;;;;;;18.69;50.75;103368.01;2245909;78;51282;-74
2023/02/08 14:56:49;;;;;;;;;;;;;;;18.70;50.74;103368.86;2269110;78;51501;-75
2023/02/08 14:59:54;;;;;;;;;;;;;;;18.70;50.74;103375.56;2279817;77;51519;-75
2023/02/08 15:02:56;;;;;;;;;;;;;;;18.74;50.70;103365.47;2280744;77;51559;-75
2023/02/08 15:06:14;;;;;;;;;;;;;;;18.76;50.61;103363.56;2306493;76;51582;-75
2023/02/08 15:09:20;;;;;;;;;;;;;;;18.78;50.54;103369.18;2296849;76;50788;-75
2023/02/08 15:12:24;;;;;;;;;;;;;;;18.78;50.54;103362.48;2269326;78;50351;-75
2023/02/08 15:15:32;;;;;;;;;;;;;;;18.79;50.54;103358.80;2242228;78;51625;-74
2023/02/08 15:18:35;;;;;;;;;;;;;;;18.85;50.40;103362.34;2245562;78;51251;-74
2023/02/08 15:21:39;;;;;;;;;;;;;;;18.90;50.25;103349.43;2269411;78;50529;-74
2023/02/08 15:24:45;;;;;;;;;;;;;;;18.95;50.16;103346.39;2246547;78;22075;-74
2023/02/08 15:27:51;;;;;;;;;;;;;;;18.98;50.07;103356.03;2269099;78;22325;-75
2023/02/08 15:30:57;;;;;;;;;;;;;;;18.93;50.10;103335.80;2246138;78;51819;-74
2023/02/08 15:33:59;;;;;;;;;;;;;;;18.90;50.10;103327.97;2269656;78;50817;-74
2023/02/08 15:37:01;;;;;;;;;;;;;;;18.85;50.19;103328.81;2269955;78;50795;-73
2023/02/08 15:40:03;;;;;;;;;;;;;;;18.78;50.31;103330.75;2270124;78;52513;-74
2023/02/08 15:43:12;;;;;;;;;;;;;;;18.68;50.50;103333.28;2270683;78;22037;-74
2023/02/08 15:46:18;;;;;;;;;;;;;;;18.65;50.58;103333.48;2271188;78;22198;-75
2023/02/08 15:49:23;;;;;;;;;;;;;;;18.63;50.66;103324.24;2271743;78;50675;-75